CDT,Max TemperatureF,Mean TemperatureF,Min TemperatureF,Max Dew PointF,MeanDew PointF,Min DewpointF,Max Humidity, Mean Humidity, Min Humidity, Max Sea Level PressureIn, Mean Sea Level PressureIn, Min Sea Level PressureIn, Max VisibilityMiles, Mean VisibilityMiles, Min VisibilityMiles, Max Wind SpeedMPH, Mean Wind SpeedMPH, Max Gust SpeedMPH,PrecipitationIn, CloudCover, Events, WindDirDegrees
2013-8-1,81,71,60,68,62,59,100,75,49,30.04,30.01,29.99,10,5,0,13,5,21,0.00,1,Fog,285
2013-8-2,82,72,61,71,67,59,97,84,71,29.99,29.96,29.93,10,10,6,15,7,22,T,4,Rain,209
2013-8-3,82,71,59,70,65,57,93,71,49,30.12,30.01,29.95,10,8,3,12,5,43,0.07,4,Rain,360
2013-8-4,78,67,56,62,57,54,93,68,43,30.19,30.15,30.12,10,10,10,7,2,20,0.00,1,,146
2013-8-5,78,68,57,65,60,56,100,77,54,30.12,30.02,29.92,10,10,7,14,5,18,0.00,4,,167
2013-8-6,84,76,67,72,68,64,93,79,65,29.94,29.91,29.87,10,7,2,9,4,,0.00,6,,200
2013-8-7,83,76,68,75,71,67,100,87,74,29.92,29.88,29.84,10,6,2,10,4,17,0.00,5,,208
2013-8-8,80,74,68,72,68,61,100,87,73,29.99,29.94,29.90,10,8,2,14,6,25,T,6,,39
2013-8-9,82,72,62,67,61,57,93,70,47,30.06,30.01,29.96,10,10,10,9,3,22,0.00,1,,22
2013-8-10,83,73,62,67,64,59,100,74,47,30.12,30.10,30.07,10,10,6,10,4,14,T,0,Rain,320
2013-8-11,83,70,56,68,61,55,93,70,47,30.14,30.11,30.07,10,10,8,8,2,15,0.00,0,,323
2013-8-12,83,73,63,70,66,61,97,78,58,30.08,29.98,29.90,10,9,5,16,4,22,0.01,1,Rain,231
2013-8-13,77,66,55,65,59,50,100,72,44,30.15,30.03,29.91,10,8,2,15,8,29,0.00,2,,17
2013-8-14,72,61,49,56,51,46,93,73,53,30.23,30.19,30.15,10,10,10,14,3,,0.00,3,,47
2013-8-15,75,62,49,58,52,47,93,70,46,30.21,30.16,30.12,10,10,10,10,3,13,0.00,1,,81
2013-8-16,78,69,59,61,56,52,90,65,40,30.18,30.16,30.13,10,10,10,13,4,17,0.00,1,,59
2013-8-17,80,69,58,59,57,55,90,68,45,30.22,30.18,30.15,10,10,10,12,6,17,0.00,0,,57
2013-8-18,83,72,61,66,60,56,93,70,47,30.19,30.14,30.10,10,10,6,13,3,37,0.00,0,,57
2013-8-19,84,72,59,67,63,57,97,74,51,30.15,30.11,30.06,10,8,5,7,2,,0.00,0,,189
2013-8-20,86,74,61,70,64,59,100,76,51,30.15,30.10,30.07,10,7,2,8,2,,0.00,1,,157
2013-8-21,87,75,62,69,66,61,93,72,51,30.14,30.10,30.03,10,6,2,10,4,,0.00,0,,203
2013-8-22,87,78,68,70,67,65,93,75,57,30.12,30.08,30.03,10,9,4,21,6,30,0.01,2,Rain,49
2013-8-23,84,75,65,67,66,64,100,78,55,30.15,30.12,30.08,10,8,4,12,4,17,0.00,2,,61
2013-8-24,87,74,61,67,63,60,93,69,45,30.25,30.21,30.15,10,9,4,12,6,25,0.00,0,,101
2013-8-25,87,74,60,66,61,57,90,65,40,30.29,30.24,30.21,10,10,10,10,5,,0.00,0,,168
2013-8-26,89,76,63,75,69,60,100,78,55,30.22,30.15,30.07,10,7,2,12,6,29,0.00,0,,212
2013-8-27,90,81,71,74,72,69,93,74,55,30.06,30.01,29.95,10,8,5,20,7,39,0.00,0,,231
2013-8-28,92,81,69,75,71,67,93,73,52,30.01,29.96,29.94,10,9,7,15,7,33,0.00,1,,258
2013-8-29,86,76,66,73,71,65,100,81,61,30.09,30.03,29.99,10,6,1,13,3,,0.00,6,,66
2013-8-30,94,80,65,76,69,63,100,76,52,29.99,29.92,29.82,10,7,0,20,5,26,0.00,2,Fog-Thunderstorm,219
2013-8-31,96,82,67,76,69,63,93,70,46,29.84,29.78,29.70,10,9,1,30,5,38,0.16,2,Rain-Thunderstorm,157